sensor_id;sensor_type;location;lat;lon;timestamp;temperature;humidity
52127;DHT22;38120;53.176;6.614;2023-05-10T00:01:42;13.00;99.90
52127;DHT22;38120;53.176;6.614;2023-05-10T00:04:08;13.00;99.90
52127;DHT22;38120;53.176;6.614;2023-05-10T00:06:34;13.00;99.90
52127;DHT22;38120;53.176;6.614;2023-05-10T00:08:59;13.00;99.90
52127;DHT22;38120;53.176;6.614;2023-05-10T00:11:25;12.90;99.90
52127;DHT22;38120;53.176;6.614;2023-05-10T00:13:51;12.90;99.90
52127;DHT22;38120;53.176;6.614;2023-05-10T00:16:17;12.90;99.90
52127;DHT22;38120;53.176;6.614;2023-05-10T00:18:42;12.90;99.90
52127;DHT22;38120;53.176;6.614;2023-05-10T00:21:08;12.90;99.90
52127;DHT22;38120;53.176;6.614;2023-05-10T00:23:34;12.80;99.90
52127;DHT22;38120;53.176;6.614;2023-05-10T00:25:59;12.80;99.90
52127;DHT22;38120;53.176;6.614;2023-05-10T00:28:27;12.90;99.90
52127;DHT22;38120;53.176;6.614;2023-05-10T00:30:53;12.80;99.90
52127;DHT22;38120;53.176;6.614;2023-05-10T00:33:18;12.80;99.90
52127;DHT22;38120;53.176;6.614;2023-05-10T00:35:44;12.80;99.90
52127;DHT22;38120;53.176;6.614;2023-05-10T00:38:10;12.90;99.90
52127;DHT22;38120;53.176;6.614;2023-05-10T00:40:36;12.80;99.90
52127;DHT22;38120;53.176;6.614;2023-05-10T00:43:03;12.80;99.90
52127;DHT22;38120;53.176;6.614;2023-05-10T00:45:32;12.80;99.90
52127;DHT22;38120;53.176;6.614;2023-05-10T00:48:00;12.80;99.90
52127;DHT22;38120;53.176;6.614;2023-05-10T00:50:28;12.80;99.90
52127;DHT22;38120;53.176;6.614;2023-05-10T00:52:54;12.80;99.90
52127;DHT22;38120;53.176;6.614;2023-05-10T00:55:25;12.90;99.90
52127;DHT22;38120;53.176;6.614;2023-05-10T00:57:53;12.80;99.90
52127;DHT22;38120;53.176;6.614;2023-05-10T01:00:19;12.80;99.90
52127;DHT22;38120;53.176;6.614;2023-05-10T01:02:45;12.80;99.90
52127;DHT22;38120;53.176;6.614;2023-05-10T01:05:11;12.80;99.90
52127;DHT22;38120;53.176;6.614;2023-05-10T01:07:37;12.80;99.90
52127;DHT22;38120;53.176;6.614;2023-05-10T01:10:05;12.80;99.90
52127;DHT22;38120;53.176;6.614;2023-05-10T01:12:31;12.80;99.90
52127;DHT22;38120;53.176;6.614;2023-05-10T01:14:57;12.80;99.90
52127;DHT22;38120;53.176;6.614;2023-05-10T01:17:23;12.80;99.90
52127;DHT22;38120;53.176;6.614;2023-05-10T01:19:50;12.80;99.90
52127;DHT22;38120;53.176;6.614;2023-05-10T01:33:41;12.70;99.90
52127;DHT22;38120;53.176;6.614;2023-05-10T01:38:58;12.70;99.90
52127;DHT22;38120;53.176;6.614;2023-05-10T01:41:55;12.70;99.90
52127;DHT22;38120;53.176;6.614;2023-05-10T01:44:46;12.60;99.90
52127;DHT22;38120;53.176;6.614;2023-05-10T01:47:22;12.60;99.90
52127;DHT22;38120;53.176;6.614;2023-05-10T01:49:52;12.60;99.90
52127;DHT22;38120;53.176;6.614;2023-05-10T01:52:30;12.60;99.90
52127;DHT22;38120;53.176;6.614;2023-05-10T01:55:04;12.60;99.90
52127;DHT22;38120;53.176;6.614;2023-05-10T01:57:35;12.60;99.90
52127;DHT22;38120;53.176;6.614;2023-05-10T02:00:03;12.60;99.90
52127;DHT22;38120;53.176;6.614;2023-05-10T02:02:37;12.60;99.90
52127;DHT22;38120;53.176;6.614;2023-05-10T02:05:05;12.60;99.90
52127;DHT22;38120;53.176;6.614;2023-05-10T02:07:35;12.60;99.90
52127;DHT22;38120;53.176;6.614;2023-05-10T02:10:02;12.50;99.90
52127;DHT22;38120;53.176;6.614;2023-05-10T02:12:31;12.50;99.90
52127;DHT22;38120;53.176;6.614;2023-05-10T02:15:02;12.50;99.90
52127;DHT22;38120;53.176;6.614;2023-05-10T02:17:32;12.50;99.90
52127;DHT22;38120;53.176;6.614;2023-05-10T02:19:59;12.60;99.90
52127;DHT22;38120;53.176;6.614;2023-05-10T02:22:27;12.60;99.90
52127;DHT22;38120;53.176;6.614;2023-05-10T02:24:54;12.60;99.90
52127;DHT22;38120;53.176;6.614;2023-05-10T02:27:22;12.50;99.90
52127;DHT22;38120;53.176;6.614;2023-05-10T02:29:50;12.60;99.90
52127;DHT22;38120;53.176;6.614;2023-05-10T02:32:16;12.50;99.90
52127;DHT22;38120;53.176;6.614;2023-05-10T02:34:43;12.50;99.90
52127;DHT22;38120;53.176;6.614;2023-05-10T02:37:12;12.50;99.90
52127;DHT22;38120;53.176;6.614;2023-05-10T02:39:39;12.50;99.90
52127;DHT22;38120;53.176;6.614;2023-05-10T02:42:11;12.50;99.90
52127;DHT22;38120;53.176;6.614;2023-05-10T02:44:41;12.50;99.90
52127;DHT22;38120;53.176;6.614;2023-05-10T02:47:07;12.40;99.90
52127;DHT22;38120;53.176;6.614;2023-05-10T02:49:33;12.50;99.90
52127;DHT22;38120;53.176;6.614;2023-05-10T02:52:01;12.50;99.90
52127;DHT22;38120;53.176;6.614;2023-05-10T02:54:32;12.50;99.90
52127;DHT22;38120;53.176;6.614;2023-05-10T02:57:00;12.50;99.90
52127;DHT22;38120;53.176;6.614;2023-05-10T02:59:27;12.50;99.90
52127;DHT22;38120;53.176;6.614;2023-05-10T03:01:52;12.40;99.90
52127;DHT22;38120;53.176;6.614;2023-05-10T03:04:18;12.50;99.90
52127;DHT22;38120;53.176;6.614;2023-05-10T03:06:44;12.50;99.90
52127;DHT22;38120;53.176;6.614;2023-05-10T03:09:11;12.50;99.90
52127;DHT22;38120;53.176;6.614;2023-05-10T03:11:55;12.50;99.90
52127;DHT22;38120;53.176;6.614;2023-05-10T03:14:42;12.40;99.90
52127;DHT22;38120;53.176;6.614;2023-05-10T03:19:53;12.40;99.90
52127;DHT22;38120;53.176;6.614;2023-05-10T03:22:22;12.40;99.90
52127;DHT22;38120;53.176;6.614;2023-05-10T03:24:49;12.40;99.90
52127;DHT22;38120;53.176;6.614;2023-05-10T03:27:15;12.40;99.90
52127;DHT22;38120;53.176;6.614;2023-05-10T03:29:42;12.40;99.90
52127;DHT22;38120;53.176;6.614;2023-05-10T03:32:09;12.40;99.90
52127;DHT22;38120;53.176;6.614;2023-05-10T03:34:41;12.40;99.90
52127;DHT22;38120;53.176;6.614;2023-05-10T03:37:08;12.40;99.90
52127;DHT22;38120;53.176;6.614;2023-05-10T03:39:33;12.40;99.90
52127;DHT22;38120;53.176;6.614;2023-05-10T03:41:59;12.40;99.90
52127;DHT22;38120;53.176;6.614;2023-05-10T03:44:25;12.40;99.90
52127;DHT22;38120;53.176;6.614;2023-05-10T03:46:50;12.30;99.90
52127;DHT22;38120;53.176;6.614;2023-05-10T03:49:16;12.40;99.90
52127;DHT22;38120;53.176;6.614;2023-05-10T03:51:41;12.40;99.90
52127;DHT22;38120;53.176;6.614;2023-05-10T03:54:07;12.30;99.90
52127;DHT22;38120;53.176;6.614;2023-05-10T03:56:33;12.30;99.90
52127;DHT22;38120;53.176;6.614;2023-05-10T03:58:58;12.30;99.90
52127;DHT22;38120;53.176;6.614;2023-05-10T04:01:24;12.40;99.90
52127;DHT22;38120;53.176;6.614;2023-05-10T04:03:50;12.30;99.90
52127;DHT22;38120;53.176;6.614;2023-05-10T04:06:16;12.30;99.90
52127;DHT22;38120;53.176;6.614;2023-05-10T04:08:41;12.30;99.90
52127;DHT22;38120;53.176;6.614;2023-05-10T04:11:07;12.30;99.90
52127;DHT22;38120;53.176;6.614;2023-05-10T04:13:33;12.30;99.90
52127;DHT22;38120;53.176;6.614;2023-05-10T04:15:59;12.30;99.90
52127;DHT22;38120;53.176;6.614;2023-05-10T04:18:25;12.30;99.90
52127;DHT22;38120;53.176;6.614;2023-05-10T04:20:50;12.30;99.90
52127;DHT22;38120;53.176;6.614;2023-05-10T04:23:16;12.30;99.90
52127;DHT22;38120;53.176;6.614;2023-05-10T04:25:42;12.30;99.90
52127;DHT22;38120;53.176;6.614;2023-05-10T04:28:08;12.30;99.90
52127;DHT22;38120;53.176;6.614;2023-05-10T04:30:34;12.30;99.90
52127;DHT22;38120;53.176;6.614;2023-05-10T04:33:00;12.30;99.90
52127;DHT22;38120;53.176;6.614;2023-05-10T04:35:27;12.30;99.90
52127;DHT22;38120;53.176;6.614;2023-05-10T04:37:53;12.30;99.90
52127;DHT22;38120;53.176;6.614;2023-05-10T04:40:19;12.30;99.90
52127;DHT22;38120;53.176;6.614;2023-05-10T04:42:45;12.20;99.90
52127;DHT22;38120;53.176;6.614;2023-05-10T04:45:12;12.20;99.90
52127;DHT22;38120;53.176;6.614;2023-05-10T04:47:37;12.20;99.90
52127;DHT22;38120;53.176;6.614;2023-05-10T04:50:04;12.20;99.90
52127;DHT22;38120;53.176;6.614;2023-05-10T04:52:30;12.20;99.90
52127;DHT22;38120;53.176;6.614;2023-05-10T04:54:55;12.20;99.90
52127;DHT22;38120;53.176;6.614;2023-05-10T04:57:21;12.10;99.90
52127;DHT22;38120;53.176;6.614;2023-05-10T04:59:47;12.10;99.90
52127;DHT22;38120;53.176;6.614;2023-05-10T05:02:13;12.10;99.90
52127;DHT22;38120;53.176;6.614;2023-05-10T05:04:39;12.10;99.90
52127;DHT22;38120;53.176;6.614;2023-05-10T05:07:04;12.10;99.90
52127;DHT22;38120;53.176;6.614;2023-05-10T05:09:30;12.10;99.90
52127;DHT22;38120;53.176;6.614;2023-05-10T05:11:57;12.10;99.90
52127;DHT22;38120;53.176;6.614;2023-05-10T05:14:23;12.10;99.90
52127;DHT22;38120;53.176;6.614;2023-05-10T05:16:51;12.10;99.90
52127;DHT22;38120;53.176;6.614;2023-05-10T05:19:17;12.10;99.90
52127;DHT22;38120;53.176;6.614;2023-05-10T05:21:43;12.10;99.90
52127;DHT22;38120;53.176;6.614;2023-05-10T05:24:09;12.10;99.90
52127;DHT22;38120;53.176;6.614;2023-05-10T05:26:35;12.10;99.90
52127;DHT22;38120;53.176;6.614;2023-05-10T05:29:02;12.10;99.90
52127;DHT22;38120;53.176;6.614;2023-05-10T05:31:28;12.10;99.90
52127;DHT22;38120;53.176;6.614;2023-05-10T05:33:54;12.10;99.90
52127;DHT22;38120;53.176;6.614;2023-05-10T05:36:20;12.10;99.90
52127;DHT22;38120;53.176;6.614;2023-05-10T05:38:46;12.10;99.90
52127;DHT22;38120;53.176;6.614;2023-05-10T05:41:12;12.10;99.90
52127;DHT22;38120;53.176;6.614;2023-05-10T05:43:38;12.20;99.90
52127;DHT22;38120;53.176;6.614;2023-05-10T05:46:04;12.10;99.90
52127;DHT22;38120;53.176;6.614;2023-05-10T05:48:30;12.10;99.90
52127;DHT22;38120;53.176;6.614;2023-05-10T05:50:56;12.10;99.90
52127;DHT22;38120;53.176;6.614;2023-05-10T05:53:22;12.20;99.90
52127;DHT22;38120;53.176;6.614;2023-05-10T05:55:53;12.10;99.90
52127;DHT22;38120;53.176;6.614;2023-05-10T05:58:19;12.20;99.90
52127;DHT22;38120;53.176;6.614;2023-05-10T06:00:45;12.20;99.90
52127;DHT22;38120;53.176;6.614;2023-05-10T06:03:11;12.10;99.90
52127;DHT22;38120;53.176;6.614;2023-05-10T06:05:37;12.10;99.90
52127;DHT22;38120;53.176;6.614;2023-05-10T06:08:02;12.20;99.90
52127;DHT22;38120;53.176;6.614;2023-05-10T06:10:28;12.20;99.90
52127;DHT22;38120;53.176;6.614;2023-05-10T06:12:54;12.20;99.90
52127;DHT22;38120;53.176;6.614;2023-05-10T06:15:20;12.20;99.90
52127;DHT22;38120;53.176;6.614;2023-05-10T06:17:45;12.20;99.90
52127;DHT22;38120;53.176;6.614;2023-05-10T06:20:12;12.30;99.90
52127;DHT22;38120;53.176;6.614;2023-05-10T06:22:38;12.30;99.90
52127;DHT22;38120;53.176;6.614;2023-05-10T06:25:04;12.20;99.90
52127;DHT22;38120;53.176;6.614;2023-05-10T06:27:30;12.20;99.90
52127;DHT22;38120;53.176;6.614;2023-05-10T06:29:56;12.20;99.90
52127;DHT22;38120;53.176;6.614;2023-05-10T06:32:21;12.20;99.90
52127;DHT22;38120;53.176;6.614;2023-05-10T06:34:47;12.20;99.90
52127;DHT22;38120;53.176;6.614;2023-05-10T06:37:13;12.20;99.90
52127;DHT22;38120;53.176;6.614;2023-05-10T06:39:44;12.20;99.90
52127;DHT22;38120;53.176;6.614;2023-05-10T06:42:09;12.20;99.90
52127;DHT22;38120;53.176;6.614;2023-05-10T06:44:35;12.20;99.90
52127;DHT22;38120;53.176;6.614;2023-05-10T06:47:01;12.20;99.90
52127;DHT22;38120;53.176;6.614;2023-05-10T06:49:27;12.10;99.90
52127;DHT22;38120;53.176;6.614;2023-05-10T06:51:52;12.10;99.90
52127;DHT22;38120;53.176;6.614;2023-05-10T06:54:19;12.10;99.90
52127;DHT22;38120;53.176;6.614;2023-05-10T06:56:44;12.10;99.90
52127;DHT22;38120;53.176;6.614;2023-05-10T06:59:10;12.10;99.90
52127;DHT22;38120;53.176;6.614;2023-05-10T07:01:36;12.10;99.90
52127;DHT22;38120;53.176;6.614;2023-05-10T07:04:01;12.10;99.90
52127;DHT22;38120;53.176;6.614;2023-05-10T07:06:27;12.00;99.90
52127;DHT22;38120;53.176;6.614;2023-05-10T07:08:54;12.10;99.90
52127;DHT22;38120;53.176;6.614;2023-05-10T07:11:19;12.10;99.90
52127;DHT22;38120;53.176;6.614;2023-05-10T07:13:45;12.10;99.90
52127;DHT22;38120;53.176;6.614;2023-05-10T07:16:12;12.10;99.90
52127;DHT22;38120;53.176;6.614;2023-05-10T07:18:37;12.10;99.90
52127;DHT22;38120;53.176;6.614;2023-05-10T07:21:03;12.10;99.90
52127;DHT22;38120;53.176;6.614;2023-05-10T07:23:29;12.00;99.90
52127;DHT22;38120;53.176;6.614;2023-05-10T07:25:55;12.10;99.90
52127;DHT22;38120;53.176;6.614;2023-05-10T07:28:23;12.00;99.90
52127;DHT22;38120;53.176;6.614;2023-05-10T07:30:49;12.10;99.90
52127;DHT22;38120;53.176;6.614;2023-05-10T07:33:16;12.20;99.90
52127;DHT22;38120;53.176;6.614;2023-05-10T07:35:42;12.20;99.90
52127;DHT22;38120;53.176;6.614;2023-05-10T07:38:08;12.20;99.90
52127;DHT22;38120;53.176;6.614;2023-05-10T07:40:34;12.20;99.90
52127;DHT22;38120;53.176;6.614;2023-05-10T07:42:59;12.20;99.90
52127;DHT22;38120;53.176;6.614;2023-05-10T07:45:27;12.40;99.90
52127;DHT22;38120;53.176;6.614;2023-05-10T07:47:53;12.40;99.90
52127;DHT22;38120;53.176;6.614;2023-05-10T07:50:19;12.50;99.90
52127;DHT22;38120;53.176;6.614;2023-05-10T07:52:46;12.50;99.90
52127;DHT22;38120;53.176;6.614;2023-05-10T07:55:12;12.50;99.90
52127;DHT22;38120;53.176;6.614;2023-05-10T07:57:38;12.40;99.90
52127;DHT22;38120;53.176;6.614;2023-05-10T08:00:05;12.40;99.90
52127;DHT22;38120;53.176;6.614;2023-05-10T08:02:31;12.30;99.90
52127;DHT22;38120;53.176;6.614;2023-05-10T08:04:56;12.40;99.90
52127;DHT22;38120;53.176;6.614;2023-05-10T08:07:24;12.40;99.90
52127;DHT22;38120;53.176;6.614;2023-05-10T08:09:50;12.40;99.90
52127;DHT22;38120;53.176;6.614;2023-05-10T08:12:15;12.30;99.90
52127;DHT22;38120;53.176;6.614;2023-05-10T08:14:41;12.40;99.90
52127;DHT22;38120;53.176;6.614;2023-05-10T08:17:07;12.40;99.90
52127;DHT22;38120;53.176;6.614;2023-05-10T08:19:32;12.40;99.90
52127;DHT22;38120;53.176;6.614;2023-05-10T08:21:58;12.40;99.90
52127;DHT22;38120;53.176;6.614;2023-05-10T08:24:24;12.40;99.90
52127;DHT22;38120;53.176;6.614;2023-05-10T08:26:49;12.40;99.90
52127;DHT22;38120;53.176;6.614;2023-05-10T08:29:15;12.40;99.90
52127;DHT22;38120;53.176;6.614;2023-05-10T08:31:41;12.50;99.90
52127;DHT22;38120;53.176;6.614;2023-05-10T08:34:07;12.50;99.90
52127;DHT22;38120;53.176;6.614;2023-05-10T08:36:33;12.40;99.90
52127;DHT22;38120;53.176;6.614;2023-05-10T08:38:59;12.40;99.90
52127;DHT22;38120;53.176;6.614;2023-05-10T08:41:27;12.40;99.90
52127;DHT22;38120;53.176;6.614;2023-05-10T08:43:54;12.40;99.90
52127;DHT22;38120;53.176;6.614;2023-05-10T08:46:21;12.50;99.90
52127;DHT22;38120;53.176;6.614;2023-05-10T08:48:48;12.50;99.90
52127;DHT22;38120;53.176;6.614;2023-05-10T08:51:19;12.60;99.90
52127;DHT22;38120;53.176;6.614;2023-05-10T08:53:45;12.60;99.90
52127;DHT22;38120;53.176;6.614;2023-05-10T08:56:11;12.70;99.90
52127;DHT22;38120;53.176;6.614;2023-05-10T08:58:37;12.60;99.90
52127;DHT22;38120;53.176;6.614;2023-05-10T09:01:04;12.50;99.90
52127;DHT22;38120;53.176;6.614;2023-05-10T09:03:30;12.60;99.90
52127;DHT22;38120;53.176;6.614;2023-05-10T09:05:56;12.60;99.90
52127;DHT22;38120;53.176;6.614;2023-05-10T09:08:26;12.60;99.90
52127;DHT22;38120;53.176;6.614;2023-05-10T09:10:53;12.70;99.90
52127;DHT22;38120;53.176;6.614;2023-05-10T09:13:21;12.70;99.90
52127;DHT22;38120;53.176;6.614;2023-05-10T09:15:47;12.70;99.90
52127;DHT22;38120;53.176;6.614;2023-05-10T09:18:13;12.70;99.90
52127;DHT22;38120;53.176;6.614;2023-05-10T09:20:39;12.70;99.90
52127;DHT22;38120;53.176;6.614;2023-05-10T09:23:05;12.70;99.90
52127;DHT22;38120;53.176;6.614;2023-05-10T09:25:31;12.80;99.90
52127;DHT22;38120;53.176;6.614;2023-05-10T09:27:59;12.80;99.90
52127;DHT22;38120;53.176;6.614;2023-05-10T09:30:26;12.80;99.90
52127;DHT22;38120;53.176;6.614;2023-05-10T09:32:52;12.80;99.90
52127;DHT22;38120;53.176;6.614;2023-05-10T09:35:21;12.90;99.90
52127;DHT22;38120;53.176;6.614;2023-05-10T09:37:51;12.90;99.90
52127;DHT22;38120;53.176;6.614;2023-05-10T09:40:22;13.00;99.90
52127;DHT22;38120;53.176;6.614;2023-05-10T09:43:05;13.00;99.90
52127;DHT22;38120;53.176;6.614;2023-05-10T09:45:34;13.00;99.90
52127;DHT22;38120;53.176;6.614;2023-05-10T09:48:01;13.00;99.90
52127;DHT22;38120;53.176;6.614;2023-05-10T09:50:28;13.20;99.90
52127;DHT22;38120;53.176;6.614;2023-05-10T09:52:55;13.20;99.90
52127;DHT22;38120;53.176;6.614;2023-05-10T09:55:25;13.20;99.90
52127;DHT22;38120;53.176;6.614;2023-05-10T09:57:59;13.30;99.90
52127;DHT22;38120;53.176;6.614;2023-05-10T10:00:26;13.40;99.90
52127;DHT22;38120;53.176;6.614;2023-05-10T10:02:56;13.50;99.90
52127;DHT22;38120;53.176;6.614;2023-05-10T10:05:32;13.60;99.90
52127;DHT22;38120;53.176;6.614;2023-05-10T10:07:59;13.60;99.90
52127;DHT22;38120;53.176;6.614;2023-05-10T10:10:26;13.50;99.90
52127;DHT22;38120;53.176;6.614;2023-05-10T10:12:52;13.50;99.90
52127;DHT22;38120;53.176;6.614;2023-05-10T10:15:18;13.40;99.90
52127;DHT22;38120;53.176;6.614;2023-05-10T10:17:45;13.50;99.90
52127;DHT22;38120;53.176;6.614;2023-05-10T10:20:12;13.50;99.90
52127;DHT22;38120;53.176;6.614;2023-05-10T10:22:38;13.70;99.90
52127;DHT22;38120;53.176;6.614;2023-05-10T10:25:04;13.80;99.90
52127;DHT22;38120;53.176;6.614;2023-05-10T10:30:23;13.90;99.90
52127;DHT22;38120;53.176;6.614;2023-05-10T10:35:48;14.00;99.90
52127;DHT22;38120;53.176;6.614;2023-05-10T10:38:15;14.20;99.90
52127;DHT22;38120;53.176;6.614;2023-05-10T10:40:41;14.20;99.90
52127;DHT22;38120;53.176;6.614;2023-05-10T10:43:27;14.10;99.90
52127;DHT22;38120;53.176;6.614;2023-05-10T10:46:23;14.10;99.90
52127;DHT22;38120;53.176;6.614;2023-05-10T10:48:50;14.00;99.90
52127;DHT22;38120;53.176;6.614;2023-05-10T10:51:19;14.10;99.90
52127;DHT22;38120;53.176;6.614;2023-05-10T10:53:47;14.10;99.90
52127;DHT22;38120;53.176;6.614;2023-05-10T10:56:13;14.10;99.90
52127;DHT22;38120;53.176;6.614;2023-05-10T10:58:41;14.10;99.90
52127;DHT22;38120;53.176;6.614;2023-05-10T11:01:11;14.20;99.90
52127;DHT22;38120;53.176;6.614;2023-05-10T11:03:37;14.20;99.90
52127;DHT22;38120;53.176;6.614;2023-05-10T11:06:03;14.20;99.90
52127;DHT22;38120;53.176;6.614;2023-05-10T11:08:31;14.20;99.90
52127;DHT22;38120;53.176;6.614;2023-05-10T11:13:40;14.40;99.90
52127;DHT22;38120;53.176;6.614;2023-05-10T11:16:15;14.70;99.90
52127;DHT22;38120;53.176;6.614;2023-05-10T11:19:01;14.70;99.90
52127;DHT22;38120;53.176;6.614;2023-05-10T11:21:28;14.70;99.90
52127;DHT22;38120;53.176;6.614;2023-05-10T11:23:56;14.80;99.90
52127;DHT22;38120;53.176;6.614;2023-05-10T11:26:29;14.90;99.90
52127;DHT22;38120;53.176;6.614;2023-05-10T11:28:55;14.90;99.90
52127;DHT22;38120;53.176;6.614;2023-05-10T11:31:21;15.00;99.90
52127;DHT22;38120;53.176;6.614;2023-05-10T11:33:52;14.70;99.90
52127;DHT22;38120;53.176;6.614;2023-05-10T11:36:28;14.70;99.90
52127;DHT22;38120;53.176;6.614;2023-05-10T11:38:55;14.70;99.90
52127;DHT22;38120;53.176;6.614;2023-05-10T11:41:22;14.60;99.90
52127;DHT22;38120;53.176;6.614;2023-05-10T11:43:53;14.70;99.90
52127;DHT22;38120;53.176;6.614;2023-05-10T11:46:24;14.60;99.90
52127;DHT22;38120;53.176;6.614;2023-05-10T11:48:52;14.50;99.90
52127;DHT22;38120;53.176;6.614;2023-05-10T11:51:22;14.50;99.90
52127;DHT22;38120;53.176;6.614;2023-05-10T11:53:49;14.40;99.90
52127;DHT22;38120;53.176;6.614;2023-05-10T11:56:16;14.50;99.90
52127;DHT22;38120;53.176;6.614;2023-05-10T11:58:42;14.40;99.90
52127;DHT22;38120;53.176;6.614;2023-05-10T12:01:08;14.40;99.90
52127;DHT22;38120;53.176;6.614;2023-05-10T12:03:35;14.40;99.90
52127;DHT22;38120;53.176;6.614;2023-05-10T12:06:02;13.90;99.90
52127;DHT22;38120;53.176;6.614;2023-05-10T12:08:30;14.40;99.90
52127;DHT22;38120;53.176;6.614;2023-05-10T12:11:07;14.40;99.90
52127;DHT22;38120;53.176;6.614;2023-05-10T12:13:38;14.30;99.90
52127;DHT22;38120;53.176;6.614;2023-05-10T12:16:19;14.30;99.90
52127;DHT22;38120;53.176;6.614;2023-05-10T12:18:49;14.40;99.90
52127;DHT22;38120;53.176;6.614;2023-05-10T12:21:17;14.40;99.90
52127;DHT22;38120;53.176;6.614;2023-05-10T12:23:46;14.50;99.90
52127;DHT22;38120;53.176;6.614;2023-05-10T12:26:12;14.50;99.90
52127;DHT22;38120;53.176;6.614;2023-05-10T12:28:38;14.50;99.90
52127;DHT22;38120;53.176;6.614;2023-05-10T12:31:06;14.40;99.90
52127;DHT22;38120;53.176;6.614;2023-05-10T12:33:36;14.30;99.90
52127;DHT22;38120;53.176;6.614;2023-05-10T12:36:04;14.40;99.90
52127;DHT22;38120;53.176;6.614;2023-05-10T12:38:35;14.30;99.90
52127;DHT22;38120;53.176;6.614;2023-05-10T12:41:08;14.50;99.90
52127;DHT22;38120;53.176;6.614;2023-05-10T12:43:35;14.50;99.90
52127;DHT22;38120;53.176;6.614;2023-05-10T12:46:07;14.50;99.90
52127;DHT22;38120;53.176;6.614;2023-05-10T12:48:33;14.50;99.90
52127;DHT22;38120;53.176;6.614;2023-05-10T12:51:00;14.60;99.90
52127;DHT22;38120;53.176;6.614;2023-05-10T12:53:26;14.70;99.90
52127;DHT22;38120;53.176;6.614;2023-05-10T12:55:52;14.70;99.90
52127;DHT22;38120;53.176;6.614;2023-05-10T12:58:18;14.80;99.90
52127;DHT22;38120;53.176;6.614;2023-05-10T13:00:44;14.80;99.90
52127;DHT22;38120;53.176;6.614;2023-05-10T13:03:10;14.80;99.90
52127;DHT22;38120;53.176;6.614;2023-05-10T13:05:36;15.00;99.90
52127;DHT22;38120;53.176;6.614;2023-05-10T13:08:02;15.00;99.90
52127;DHT22;38120;53.176;6.614;2023-05-10T13:10:31;15.00;99.90
52127;DHT22;38120;53.176;6.614;2023-05-10T13:12:58;15.00;99.90
52127;DHT22;38120;53.176;6.614;2023-05-10T13:15:25;15.00;99.90
52127;DHT22;38120;53.176;6.614;2023-05-10T13:17:51;14.90;99.90
52127;DHT22;38120;53.176;6.614;2023-05-10T13:20:17;14.90;99.90
52127;DHT22;38120;53.176;6.614;2023-05-10T13:22:43;14.80;99.90
52127;DHT22;38120;53.176;6.614;2023-05-10T13:25:09;14.80;99.90
52127;DHT22;38120;53.176;6.614;2023-05-10T13:27:35;14.70;99.90
52127;DHT22;38120;53.176;6.614;2023-05-10T13:30:02;14.70;99.90
52127;DHT22;38120;53.176;6.614;2023-05-10T13:32:28;14.70;99.90
52127;DHT22;38120;53.176;6.614;2023-05-10T13:34:55;14.70;99.90
52127;DHT22;38120;53.176;6.614;2023-05-10T13:37:21;14.60;99.90
52127;DHT22;38120;53.176;6.614;2023-05-10T13:39:47;14.50;99.90
52127;DHT22;38120;53.176;6.614;2023-05-10T13:42:13;14.40;99.90
52127;DHT22;38120;53.176;6.614;2023-05-10T13:44:39;14.40;99.90
52127;DHT22;38120;53.176;6.614;2023-05-10T13:47:05;14.40;99.90
52127;DHT22;38120;53.176;6.614;2023-05-10T13:49:30;14.40;99.90
52127;DHT22;38120;53.176;6.614;2023-05-10T13:51:56;14.40;99.90
52127;DHT22;38120;53.176;6.614;2023-05-10T13:54:23;14.40;99.90
52127;DHT22;38120;53.176;6.614;2023-05-10T13:56:49;14.30;99.90
52127;DHT22;38120;53.176;6.614;2023-05-10T13:59:15;14.40;99.90
52127;DHT22;38120;53.176;6.614;2023-05-10T14:01:41;14.40;99.90
52127;DHT22;38120;53.176;6.614;2023-05-10T14:04:08;14.40;99.90
52127;DHT22;38120;53.176;6.614;2023-05-10T14:06:36;15.80;99.90
52127;DHT22;38120;53.176;6.614;2023-05-10T14:09:02;14.50;99.90
52127;DHT22;38120;53.176;6.614;2023-05-10T14:11:28;14.50;99.90
52127;DHT22;38120;53.176;6.614;2023-05-10T14:13:54;14.60;99.90
52127;DHT22;38120;53.176;6.614;2023-05-10T14:16:20;14.50;99.90
52127;DHT22;38120;53.176;6.614;2023-05-10T14:18:46;14.50;99.90
52127;DHT22;38120;53.176;6.614;2023-05-10T14:21:12;14.50;99.90
52127;DHT22;38120;53.176;6.614;2023-05-10T14:23:38;14.60;99.90
52127;DHT22;38120;53.176;6.614;2023-05-10T14:26:04;14.50;99.90
52127;DHT22;38120;53.176;6.614;2023-05-10T14:28:30;14.50;99.90
52127;DHT22;38120;53.176;6.614;2023-05-10T14:30:55;14.60;99.90
52127;DHT22;38120;53.176;6.614;2023-05-10T14:33:21;14.50;99.90
52127;DHT22;38120;53.176;6.614;2023-05-10T14:35:47;14.60;99.90
52127;DHT22;38120;53.176;6.614;2023-05-10T14:38:13;14.70;99.90
52127;DHT22;38120;53.176;6.614;2023-05-10T14:40:39;14.80;99.90
52127;DHT22;38120;53.176;6.614;2023-05-10T14:43:05;14.80;99.90
52127;DHT22;38120;53.176;6.614;2023-05-10T14:45:31;15.00;99.90
52127;DHT22;38120;53.176;6.614;2023-05-10T14:47:57;15.10;99.90
52127;DHT22;38120;53.176;6.614;2023-05-10T14:50:23;15.20;99.90
52127;DHT22;38120;53.176;6.614;2023-05-10T14:52:49;15.20;99.90
52127;DHT22;38120;53.176;6.614;2023-05-10T14:55:15;15.30;99.90
52127;DHT22;38120;53.176;6.614;2023-05-10T14:57:41;15.40;99.90
52127;DHT22;38120;53.176;6.614;2023-05-10T15:00:07;15.30;99.90
52127;DHT22;38120;53.176;6.614;2023-05-10T15:02:34;15.40;99.90
52127;DHT22;38120;53.176;6.614;2023-05-10T15:05:00;15.50;99.90
52127;DHT22;38120;53.176;6.614;2023-05-10T15:07:25;15.60;99.90
52127;DHT22;38120;53.176;6.614;2023-05-10T15:09:51;15.60;99.90
52127;DHT22;38120;53.176;6.614;2023-05-10T15:12:18;15.70;99.90
52127;DHT22;38120;53.176;6.614;2023-05-10T15:14:43;15.60;99.90
52127;DHT22;38120;53.176;6.614;2023-05-10T15:17:09;15.70;99.90
52127;DHT22;38120;53.176;6.614;2023-05-10T15:19:35;15.70;99.90
52127;DHT22;38120;53.176;6.614;2023-05-10T15:22:02;15.70;99.90
52127;DHT22;38120;53.176;6.614;2023-05-10T15:24:28;15.80;99.90
52127;DHT22;38120;53.176;6.614;2023-05-10T15:26:54;15.80;99.90
52127;DHT22;38120;53.176;6.614;2023-05-10T15:29:19;15.70;99.90
52127;DHT22;38120;53.176;6.614;2023-05-10T15:31:49;15.70;99.90
52127;DHT22;38120;53.176;6.614;2023-05-10T15:34:16;15.60;99.90
52127;DHT22;38120;53.176;6.614;2023-05-10T15:36:42;15.50;99.90
52127;DHT22;38120;53.176;6.614;2023-05-10T15:39:07;15.30;99.90
52127;DHT22;38120;53.176;6.614;2023-05-10T15:41:35;15.40;99.90
52127;DHT22;38120;53.176;6.614;2023-05-10T15:44:00;15.30;99.90
52127;DHT22;38120;53.176;6.614;2023-05-10T15:46:27;15.30;99.90
52127;DHT22;38120;53.176;6.614;2023-05-10T15:48:53;15.20;99.90
52127;DHT22;38120;53.176;6.614;2023-05-10T15:51:19;15.20;99.90
52127;DHT22;38120;53.176;6.614;2023-05-10T15:53:45;15.10;99.90
52127;DHT22;38120;53.176;6.614;2023-05-10T15:56:11;15.00;99.90